Afton, Michigan
Current Conditions -  °F | °C
As of 3:58 PM on Thursday 18 Dec 2014 (Local Time) from KSLH Reporting Station
Clear Clear  
Wind Chill: 22°   Ceiling: Unl
Heat Index: 22°   Visibility: 10mi
Dew Point: 10°   Wind: 3mph
Humidity: 60%   Direction: 350°N
Pressure: 30.21"   Gusts: NA
Location:  45.36°N, 84.47°W
Report Text: KSLH 182058Z AUTO 35003KT 10SM CLR M06/M12 A3021 RMK AO2 T10581124
Loading
Personal Weather Stations






























Interactive Weather Map New forecast layout! Learn more

10-Day Weather Forecast

Advertisements
Track Severe Weather on mobile